Time;durP1;ratioP1;P1;durP2;ratioP2;P2;SDS_P1;SDS_P2;PMS_P1;PMS_P2;Temp;Humidity;BMP_temperature;BMP_pressure;BME280_temperature;BME280_humidity;BME280_pressure;Samples;Min_cycle;Max_cycle;Signal;HPM_P1;HPM_P2
2021/10/06 00:00:09;;;;;;;4.45;1.75;;;;;;;13.22;82.02;100690.47;5043876;28;20041;-50
2021/10/06 00:02:40;;;;;;;6.03;2.00;;;;;;;13.17;82.61;100694.06;5054294;28;20037;-49
2021/10/06 00:05:08;;;;;;;7.90;2.53;;;;;;;13.17;81.72;100693.25;5054319;28;20098;-50
2021/10/06 00:07:36;;;;;;;9.30;2.33;;;;;;;13.17;80.23;100685.06;5039776;28;20492;-50
2021/10/06 00:10:05;;;;;;;6.07;1.95;;;;;;;13.01;80.84;100689.84;5047985;28;20045;-50
2021/10/06 00:12:33;;;;;;;7.13;2.35;;;;;;;13.09;82.02;100705.66;5054261;28;20045;-50
2021/10/06 00:15:01;;;;;;;4.50;1.80;;;;;;;12.99;80.46;100703.81;5046026;28;20068;-50
2021/10/06 00:17:28;;;;;;;6.13;1.90;;;;;;;12.99;82.89;100697.56;5052644;28;20052;-52
2021/10/06 00:19:56;;;;;;;11.35;3.08;;;;;;;12.99;81.05;100697.56;5047962;28;20041;-50
2021/10/06 00:22:24;;;;;;;5.32;2.33;;;;;;;13.10;82.61;100698.25;5053730;28;20530;-47
2021/10/06 00:24:51;;;;;;;5.15;1.88;;;;;;;13.00;80.84;100697.25;5052691;28;20434;-49
2021/10/06 00:27:19;;;;;;;6.13;1.80;;;;;;;13.08;81.96;100695.78;5049608;28;20518;-49
2021/10/06 00:29:46;;;;;;;5.95;2.28;;;;;;;12.95;80.91;100691.00;5045246;28;20268;-50
2021/10/06 00:32:14;;;;;;;4.00;1.80;;;;;;;12.93;83.14;100693.22;5048258;28;20045;-51
2021/10/06 00:34:42;;;;;;;5.93;2.25;;;;;;;12.95;81.66;100691.81;5046068;28;20460;-52
2021/10/06 00:37:09;;;;;;;6.63;2.22;;;;;;;13.13;82.24;100698.50;5046621;28;20045;-50
2021/10/06 00:39:37;;;;;;;6.03;2.05;;;;;;;13.10;81.86;100698.25;5050247;28;20049;-50
2021/10/06 00:42:04;;;;;;;4.97;2.30;;;;;;;13.05;81.18;100699.13;5053558;28;20103;-47
2021/10/06 00:44:35;;;;;;;8.27;2.53;;;;;;;13.14;81.15;100693.84;5049324;28;20037;-49
2021/10/06 00:47:03;;;;;;;7.22;2.30;;;;;;;13.14;80.66;100697.41;5053678;28;20099;-50
2021/10/06 00:49:32;;;;;;;7.00;2.55;;;;;;;13.02;80.18;100696.97;5053881;28;20048;-50
2021/10/06 00:51:59;;;;;;;6.25;2.05;;;;;;;13.02;80.47;100694.22;5040120;28;20048;-51
2021/10/06 00:54:27;;;;;;;5.18;1.90;;;;;;;12.98;80.72;100701.38;5053332;28;20052;-50
2021/10/06 00:56:54;;;;;;;8.88;2.40;;;;;;;12.86;80.34;100709.94;5038762;28;20037;-51
2021/10/06 00:59:22;;;;;;;7.35;2.10;;;;;;;12.97;82.20;100699.75;5049960;28;20037;-50
2021/10/06 01:01:50;;;;;;;7.15;2.47;;;;;;;12.93;80.61;100704.97;5039225;28;20045;-50
2021/10/06 01:04:17;;;;;;;5.65;2.10;;;;;;;13.17;83.12;100699.53;5053472;28;20500;-50
2021/10/06 01:06:45;;;;;;;6.57;2.40;;;;;;;13.10;81.49;100709.19;5041161;28;20412;-47
2021/10/06 01:09:12;;;;;;;7.10;2.35;;;;;;;13.17;81.37;100709.69;5048916;28;20049;-51
2021/10/06 01:11:40;;;;;;;9.05;2.33;;;;;;;13.13;81.10;100708.63;5041152;28;20041;-50
2021/10/06 01:14:08;;;;;;;8.68;2.67;;;;;;;12.95;79.77;100719.16;5041715;28;20049;-53
2021/10/06 01:16:36;;;;;;;8.43;3.05;;;;;;;12.79;79.55;100720.38;5035021;28;20061;-51
2021/10/06 01:19:22;;;;;;;8.32;2.30;;;;;;;12.76;81.04;100716.31;5035341;28;20083;-53
2021/10/06 01:21:50;;;;;;;7.22;2.20;;;;;;;12.75;80.53;100714.69;5051500;28;20051;-50
2021/10/06 01:24:19;;;;;;;6.32;2.30;;;;;;;12.85;80.54;100723.91;5051318;28;20044;-49
2021/10/06 01:26:46;;;;;;;5.90;1.83;;;;;;;13.06;81.01;100725.38;5046250;28;20053;-50
2021/10/06 01:29:15;;;;;;;6.00;1.77;;;;;;;13.00;81.38;100731.97;5049811;28;20037;-50
2021/10/06 01:31:47;;;;;;;6.38;2.25;;;;;;;13.14;81.24;100722.00;5042951;28;20443;-54
2021/10/06 01:34:17;;;;;;;7.88;2.95;;;;;;;12.97;78.95;100727.09;5039445;28;20044;-49
2021/10/06 01:36:48;;;;;;;5.28;1.90;;;;;;;13.07;81.64;100727.00;5049296;28;20045;-50
2021/10/06 01:39:17;;;;;;;8.68;2.10;;;;;;;13.02;81.27;100729.78;5052496;28;20045;-50
2021/10/06 01:41:45;;;;;;;6.47;2.05;;;;;;;13.30;79.83;100735.56;5052109;28;20043;-48
2021/10/06 01:44:17;;;;;;;7.65;2.47;;;;;;;13.10;80.45;100731.88;5041824;28;20037;-50
2021/10/06 01:46:45;;;;;;;9.90;3.03;;;;;;;12.88;79.64;100742.47;5050016;28;20090;-50
2021/10/06 01:49:13;;;;;;;5.70;2.08;;;;;;;12.89;81.40;100744.09;5052445;28;20041;-52
2021/10/06 01:51:41;;;;;;;3.58;1.50;;;;;;;12.94;83.50;100735.84;5052268;28;20044;-49
2021/10/06 01:54:09;;;;;;;8.70;2.13;;;;;;;12.92;79.93;100747.09;5044640;28;20411;-48
2021/10/06 01:56:37;;;;;;;9.65;2.80;;;;;;;12.85;79.56;100740.31;5038448;28;20053;-48
2021/10/06 01:59:05;;;;;;;6.45;1.90;;;;;;;12.91;82.10;100741.91;5038696;28;20045;-46
2021/10/06 02:01:33;;;;;;;3.78;1.63;;;;;;;12.87;82.27;100744.41;5046049;28;20049;-51
2021/10/06 02:04:01;;;;;;;12.55;2.80;;;;;;;12.78;79.84;100744.19;5025590;28;20083;-47
2021/10/06 02:06:28;;;;;;;5.40;1.92;;;;;;;12.82;82.36;100738.13;5032474;28;20136;-49
2021/10/06 02:08:56;;;;;;;9.20;2.50;;;;;;;12.97;81.67;100738.84;5047865;28;20037;-50
2021/10/06 02:11:23;;;;;;;8.27;2.70;;;;;;;12.90;80.05;100746.56;5049895;28;20045;-50
2021/10/06 02:13:51;;;;;;;9.05;2.45;;;;;;;12.97;80.48;100744.31;5045818;28;20048;-52
2021/10/06 02:16:19;;;;;;;8.70;2.40;;;;;;;13.06;81.67;100740.97;5046865;28;20403;-50
2021/10/06 02:18:46;;;;;;;5.85;2.22;;;;;;;12.91;80.34;100733.69;5051497;28;20406;-50
2021/10/06 02:21:32;;;;;;;8.10;1.92;;;;;;;12.91;80.34;100731.78;5051268;28;20045;-50
2021/10/06 02:24:00;;;;;;;6.10;2.10;;;;;;;12.95;80.35;100732.84;5042124;28;20029;-50
2021/10/06 02:26:28;;;;;;;7.10;2.25;;;;;;;12.85;79.26;100743.88;5043896;28;20044;-49
2021/10/06 02:28:55;;;;;;;4.40;1.85;;;;;;;12.92;82.09;100729.88;5050637;28;20045;-53
2021/10/06 02:31:23;;;;;;;7.65;2.20;;;;;;;12.89;80.32;100733.16;5039113;28;20040;-53
2021/10/06 02:33:50;;;;;;;9.65;2.38;;;;;;;12.84;79.88;100736.75;5045513;28;20045;-52
2021/10/06 02:36:18;;;;;;;4.07;1.70;;;;;;;12.93;83.01;100721.38;5025105;28;20041;-52
2021/10/06 02:38:45;;;;;;;5.65;1.98;;;;;;;13.04;83.23;100722.13;5043827;28;20037;-53
2021/10/06 02:41:13;;;;;;;5.32;2.20;;;;;;;12.92;80.98;100722.47;5051657;28;20369;-50
2021/10/06 02:43:41;;;;;;;7.95;2.60;;;;;;;13.00;81.58;100732.78;5051657;28;20052;-51
2021/10/06 02:46:08;;;;;;;9.55;2.50;;;;;;;12.86;81.21;100728.28;5046705;28;20049;-53
2021/10/06 02:48:36;;;;;;;8.98;2.50;;;;;;;12.72;81.41;100728.94;5050094;28;20060;-50
2021/10/06 02:51:03;;;;;;;9.60;2.22;;;;;;;12.72;81.63;100723.47;5046144;28;20041;-49
2021/10/06 02:53:31;;;;;;;7.03;2.42;;;;;;;12.67;81.96;100715.28;5051624;28;20044;-47
2021/10/06 02:55:59;;;;;;;5.97;2.10;;;;;;;12.77;82.60;100723.44;5038297;28;20404;-49
2021/10/06 02:58:26;;;;;;;7.03;2.38;;;;;;;12.78;82.58;100724.25;5050776;28;20041;-51
2021/10/06 03:00:54;;;;;;;6.78;1.73;;;;;;;12.88;83.85;100720.59;5044399;28;20385;-50
2021/10/06 03:03:21;;;;;;;6.88;2.05;;;;;;;12.90;82.57;100726.59;5050931;28;20049;-50
2021/10/06 03:05:49;;;;;;;4.95;2.00;;;;;;;12.85;80.97;100718.44;5044520;28;20424;-50
2021/10/06 03:08:17;;;;;;;6.63;2.78;;;;;;;12.88;81.84;100724.16;5045682;28;20042;-49
2021/10/06 03:10:44;;;;;;;11.02;2.60;;;;;;;12.93;80.54;100723.28;5051484;28;20060;-49
2021/10/06 03:13:12;;;;;;;8.25;2.33;;;;;;;13.07;81.28;100716.06;5051229;28;20041;-48
2021/10/06 03:15:39;;;;;;;8.02;2.35;;;;;;;12.90;79.02;100732.06;5041022;28;20454;-50
2021/10/06 03:18:07;;;;;;;5.60;2.10;;;;;;;12.78;80.11;100735.19;5050350;28;20053;-50
2021/10/06 03:20:36;;;;;;;4.60;2.00;;;;;;;12.67;80.89;100731.69;5051236;28;20041;-50
2021/10/06 03:23:05;;;;;;;7.88;2.28;;;;;;;12.93;79.40;100732.31;5051998;28;20045;-51
2021/10/06 03:25:33;;;;;;;8.02;2.28;;;;;;;12.93;79.78;100732.31;5044840;28;20046;-50
2021/10/06 03:28:00;;;;;;;10.07;2.97;;;;;;;12.83;79.61;100737.06;5045256;28;20051;-50
2021/10/06 03:30:28;;;;;;;7.82;1.80;;;;;;;12.84;81.18;100744.16;5042067;28;20541;-51
2021/10/06 03:32:56;;;;;;;7.32;2.10;;;;;;;12.72;79.39;100753.53;5054468;28;20407;-50
2021/10/06 03:35:24;;;;;;;2.95;1.65;;;;;;;12.92;81.97;100757.22;5043763;28;20041;-49
2021/10/06 03:37:52;;;;;;;6.55;2.22;;;;;;;13.03;80.51;100752.47;5055087;28;20041;-53
2021/10/06 03:40:19;;;;;;;7.45;2.33;;;;;;;12.82;79.36;100757.28;5055012;28;20056;-49
2021/10/06 03:42:47;;;;;;;6.43;2.28;;;;;;;12.73;80.29;100757.09;5054765;28;20044;-52
2021/10/06 03:45:15;;;;;;;4.53;1.92;;;;;;;12.84;83.75;100755.09;5041436;28;20038;-49
2021/10/06 03:47:43;;;;;;;5.45;2.08;;;;;;;13.45;81.01;100759.25;5047504;28;20057;-48
2021/10/06 03:50:13;;;;;;;5.25;2.08;;;;;;;13.30;78.84;100754.72;5054899;28;20415;-56
2021/10/06 03:52:41;;;;;;;8.95;2.42;;;;;;;13.26;78.39;100761.88;5054490;28;20037;-56
2021/10/06 03:55:09;;;;;;;8.20;2.50;;;;;;;13.22;77.52;100761.59;5044458;28;20416;-53
2021/10/06 03:57:37;;;;;;;6.55;2.20;;;;;;;13.16;79.34;100762.78;5050025;28;20045;-55
2021/10/06 04:00:07;;;;;;;6.22;1.92;;;;;;;13.23;80.58;100766.00;5050317;28;20045;-53
2021/10/06 04:02:36;;;;;;;5.68;1.70;;;;;;;13.31;80.05;100767.31;5054078;28;20404;-55
2021/10/06 04:05:05;;;;;;;4.32;1.45;;;;;;;13.46;80.40;100763.63;5048085;28;20041;-53
2021/10/06 04:07:32;;;;;;;6.47;2.15;;;;;;;13.52;77.04;100763.28;5048136;28;20203;-52
2021/10/06 04:10:00;;;;;;;6.78;2.17;;;;;;;13.30;78.71;100773.88;5054473;28;20037;-52
2021/10/06 04:12:28;;;;;;;4.75;1.85;;;;;;;13.43;79.74;100773.22;5054107;28;20053;-52
2021/10/06 04:15:16;;;;;;;5.32;2.05;;;;;;;13.42;78.23;100777.06;5044025;28;20495;-52
2021/10/06 04:18:05;;;;;;;5.60;1.73;;;;;;;13.41;78.49;100781.72;5053514;28;20057;-53
2021/10/06 04:20:53;;;;;;;6.28;2.08;;;;;;;13.76;75.92;100771.53;5054365;28;20123;-49
2021/10/06 04:23:40;;;;;;;5.15;2.25;;;;;;;13.53;77.31;100775.84;5053817;28;20060;-49
2021/10/06 04:26:28;;;;;;;8.23;2.10;;;;;;;13.31;77.38;100784.56;5033725;28;20807;-51
2021/10/06 04:29:15;;;;;;;6.68;2.25;;;;;;;13.20;79.29;100778.34;5020026;28;20448;-52
2021/10/06 04:31:43;;;;;;;9.10;2.40;;;;;;;13.19;79.25;100779.41;5036039;28;20053;-48
2021/10/06 04:34:31;;;;;;;8.18;2.65;;;;;;;13.14;79.23;100781.38;5036204;28;20116;-53
2021/10/06 04:36:58;;;;;;;9.57;2.17;;;;;;;13.08;79.88;100788.00;5052723;28;20068;-54
2021/10/06 04:39:26;;;;;;;5.85;2.03;;;;;;;13.14;80.41;100793.16;4339813;28;10000703;-50
2021/10/06 04:41:53;;;;;;;7.22;2.17;;;;;;;13.50;78.96;100781.91;5042795;28;20053;-47
2021/10/06 04:44:21;;;;;;;9.90;2.72;;;;;;;13.48;77.71;100775.91;5045982;28;20029;-49
2021/10/06 04:46:49;;;;;;;7.40;2.58;;;;;;;13.47;78.87;100779.75;5051086;28;20439;-49
2021/10/06 04:49:17;;;;;;;8.07;2.50;;;;;;;13.26;78.11;100791.97;5048272;28;20399;-50
2021/10/06 04:51:45;;;;;;;11.95;2.92;;;;;;;13.26;79.23;100789.22;5048749;28;20049;-50
2021/10/06 04:54:12;;;;;;;8.18;2.67;;;;;;;13.08;78.61;100799.75;5047380;28;20051;-50
2021/10/06 04:56:40;;;;;;;10.43;2.83;;;;;;;13.09;81.33;100790.44;5051459;28;20381;-51
2021/10/06 04:59:08;;;;;;;10.10;2.70;;;;;;;13.28;81.55;100787.88;5045482;28;20068;-53
2021/10/06 05:01:35;;;;;;;9.88;3.10;;;;;;;13.53;79.66;100780.53;5037452;28;20037;-52
2021/10/06 05:04:03;;;;;;;11.55;2.80;;;;;;;13.63;78.34;100780.41;5051240;28;20044;-47
2021/10/06 05:06:31;;;;;;;3.97;1.95;;;;;;;13.52;79.86;100790.66;5050707;28;20045;-53
2021/10/06 05:08:58;;;;;;;8.68;1.95;;;;;;;13.40;80.49;100780.09;5044203;28;20386;-50
2021/10/06 05:11:27;;;;;;;8.63;2.33;;;;;;;13.49;79.83;100791.22;5031032;28;20034;-47
2021/10/06 05:13:54;;;;;;;7.60;2.42;;;;;;;13.42;80.14;100785.25;5035767;28;20045;-47
2021/10/06 05:16:22;;;;;;;8.38;2.70;;;;;;;13.51;79.61;100791.75;5046728;28;20453;-45
2021/10/06 05:18:50;;;;;;;7.97;2.28;;;;;;;13.49;80.25;100793.94;5038568;28;20095;-46
2021/10/06 05:21:17;;;;;;;6.47;2.13;;;;;;;13.47;79.78;100798.09;5039232;28;20361;-46
2021/10/06 05:23:45;;;;;;;8.77;2.10;;;;;;;13.79;77.43;100797.50;5050385;28;20049;-46
2021/10/06 05:26:12;;;;;;;4.95;1.85;;;;;;;13.92;78.56;100788.59;5050283;28;20041;-47
2021/10/06 05:28:40;;;;;;;8.38;2.45;;;;;;;14.09;76.76;100801.00;5040843;28;20041;-44
2021/10/06 05:31:08;;;;;;;7.05;2.53;;;;;;;13.95;76.64;100796.25;5042792;28;20712;-46
2021/10/06 05:33:36;;;;;;;11.25;2.60;;;;;;;13.43;76.69;100800.59;5036857;28;20059;-45
2021/10/06 05:36:05;;;;;;;6.95;2.08;;;;;;;13.15;79.22;100808.44;5050586;28;20044;-46
2021/10/06 05:38:32;;;;;;;7.07;1.80;;;;;;;12.96;80.18;100791.94;5039400;28;20068;-47
2021/10/06 05:41:00;;;;;;;6.93;2.22;;;;;;;13.55;77.95;100800.22;5035100;28;20052;-47
2021/10/06 05:43:27;;;;;;;8.48;2.53;;;;;;;13.29;78.40;100794.16;5049868;28;20036;-48
2021/10/06 05:45:55;;;;;;;7.65;2.60;;;;;;;13.58;77.83;100797.69;5049833;28;20079;-47
2021/10/06 05:48:23;;;;;;;7.05;1.83;;;;;;;13.72;79.79;100799.78;5047696;28;20053;-47
2021/10/06 05:50:50;;;;;;;5.35;2.38;;;;;;;13.48;77.75;100802.47;5048757;28;20045;-46
2021/10/06 05:53:18;;;;;;;4.28;1.77;;;;;;;13.57;79.35;100790.59;5033260;28;20522;-48
2021/10/06 05:55:46;;;;;;;6.47;2.30;;;;;;;13.57;77.53;100790.59;5044581;28;20033;-47
2021/10/06 05:58:14;;;;;;;7.95;2.35;;;;;;;13.46;77.91;100810.97;5042648;28;20049;-47
2021/10/06 06:00:42;;;;;;;4.80;1.88;;;;;;;13.26;79.35;100805.66;5035758;28;20034;-46
2021/10/06 06:03:10;;;;;;;7.57;2.28;;;;;;;13.11;78.94;100806.59;5034960;28;20045;-47
2021/10/06 06:05:41;;;;;;;8.02;2.20;;;;;;;13.71;79.08;100806.34;5035160;28;20090;-45
2021/10/06 06:08:09;;;;;;;7.70;1.77;;;;;;;13.87;78.76;100805.06;5036235;28;20407;-47
2021/10/06 06:10:37;;;;;;;11.85;2.58;;;;;;;13.94;77.67;100811.03;5034091;28;20042;-47
2021/10/06 06:13:04;;;;;;;28.42;3.33;;;;;;;13.85;78.35;100808.13;5037022;28;20504;-46
2021/10/06 06:15:32;;;;;;;13.45;2.30;;;;;;;13.74;77.80;100814.00;5040349;28;20048;-47
2021/10/06 06:18:00;;;;;;;11.38;2.40;;;;;;;14.07;76.60;100818.56;5036128;28;20056;-47
2021/10/06 06:20:27;;;;;;;8.68;2.47;;;;;;;13.66;77.05;100820.09;5035223;28;20049;-46
2021/10/06 06:22:55;;;;;;;5.30;1.90;;;;;;;13.26;78.57;100822.06;5025804;28;20140;-48
2021/10/06 06:25:24;;;;;;;8.45;2.15;;;;;;;13.14;80.74;100825.97;5030448;28;20091;-46
2021/10/06 06:27:51;;;;;;;8.82;2.30;;;;;;;13.32;79.71;100826.41;5040354;28;20471;-48
2021/10/06 06:30:19;;;;;;;5.72;1.95;;;;;;;13.53;80.50;100821.59;5038338;28;20045;-50
2021/10/06 06:32:47;;;;;;;8.23;2.55;;;;;;;13.42;78.88;100824.41;5037414;28;20045;-49
2021/10/06 06:35:14;;;;;;;9.63;2.50;;;;;;;13.20;80.34;100822.09;5038711;28;20037;-48
2021/10/06 06:37:42;;;;;;;6.63;1.85;;;;;;;13.18;82.06;100816.09;5043840;28;20392;-48
2021/10/06 06:40:10;;;;;;;6.88;2.00;;;;;;;13.40;80.37;100823.06;5037258;28;20052;-48
2021/10/06 06:42:38;;;;;;;6.78;2.00;;;;;;;13.14;81.47;100836.09;5032724;28;20038;-49
2021/10/06 06:45:06;;;;;;;7.78;1.88;;;;;;;13.72;79.14;100832.63;5029855;28;20045;-47
2021/10/06 06:47:35;;;;;;;8.32;2.30;;;;;;;13.23;79.55;100839.88;5030393;28;20048;-44
2021/10/06 06:50:04;;;;;;;10.57;2.17;;;;;;;13.31;79.52;100836.53;5031481;28;20496;-49
2021/10/06 06:52:31;;;;;;;5.10;2.28;;;;;;;13.17;80.06;100839.06;5031393;28;20148;-48
2021/10/06 06:54:59;;;;;;;6.45;2.20;;;;;;;12.96;81.09;100843.03;5031257;28;20053;-48
2021/10/06 06:57:27;;;;;;;7.63;2.38;;;;;;;12.90;81.30;100842.28;5031363;28;20034;-45
2021/10/06 06:59:54;;;;;;;7.97;2.35;;;;;;;12.83;81.83;100847.25;5024673;28;20038;-46
2021/10/06 07:02:22;;;;;;;7.53;2.40;;;;;;;13.10;80.82;100846.78;5035644;28;20042;-48
2021/10/06 07:04:49;;;;;;;6.05;1.65;;;;;;;12.86;83.43;100865.81;5034685;28;20063;-47
2021/10/06 07:07:37;;;;;;;8.43;2.00;;;;;;;12.67;83.16;100867.56;5034987;28;20053;-46
2021/10/06 07:10:05;;;;;;;6.32;1.90;;;;;;;12.47;84.91;100868.47;5034908;28;20209;-49
2021/10/06 07:12:33;;;;;;;7.60;2.25;;;;;;;12.32;84.00;100875.63;5035720;28;20128;-44
2021/10/06 07:15:01;;;;;;;5.32;2.17;;;;;;;12.36;85.29;100882.19;5035985;28;20049;-47
2021/10/06 07:17:28;;;;;;;6.47;2.30;;;;;;;12.40;85.93;100884.34;5055142;28;20063;-47
2021/10/06 07:19:56;;;;;;;5.43;2.35;;;;;;;12.29;84.97;100887.13;5046212;28;20076;-45
2021/10/06 07:22:24;;;;;;;6.07;2.05;;;;;;;12.30;85.73;100890.66;5055007;28;20448;-49
2021/10/06 07:24:51;;;;;;;8.20;2.35;;;;;;;12.33;85.60;100881.91;5054729;28;20519;-47
2021/10/06 07:27:19;;;;;;;8.15;2.53;;;;;;;12.26;87.15;100887.66;5055105;28;20045;-46
2021/10/06 07:29:46;;;;;;;21.17;5.65;;;;;;;12.30;86.39;100894.22;5048396;28;20042;-46
2021/10/06 07:32:14;;;;;;;46.53;12.30;;;;;;;12.64;84.95;100877.13;5037564;28;20957;-44
2021/10/06 07:34:42;;;;;;;18.45;5.28;;;;;;;12.55;84.74;100896.06;5054540;28;20550;-47
2021/10/06 07:37:09;;;;;;;16.88;5.45;;;;;;;12.58;85.35;100889.19;5054799;28;20051;-47
2021/10/06 07:39:37;;;;;;;18.30;5.43;;;;;;;12.73;84.76;100897.31;5039051;28;20037;-47
2021/10/06 07:42:05;;;;;;;20.90;5.95;;;;;;;12.66;85.04;100899.53;5042487;28;20415;-45
2021/10/06 07:44:33;;;;;;;29.90;7.75;;;;;;;12.97;84.26;100902.13;5037150;28;20451;-44
2021/10/06 07:47:00;;;;;;;20.50;5.47;;;;;;;12.73;83.78;100896.50;5044942;28;20049;-47
2021/10/06 07:49:28;;;;;;;19.75;5.25;;;;;;;12.58;86.01;100897.41;5042663;28;20049;-46
2021/10/06 07:51:59;;;;;;;16.83;4.97;;;;;;;13.02;83.67;100910.31;5039813;28;20449;-46
2021/10/06 07:54:26;;;;;;;20.15;5.72;;;;;;;13.11;83.82;100905.06;5042075;28;20045;-48
2021/10/06 07:56:54;;;;;;;21.00;5.80;;;;;;;12.97;84.70;100913.06;5046280;28;20037;-47
2021/10/06 07:59:21;;;;;;;21.33;5.60;;;;;;;13.06;84.64;100911.38;5035291;28;20520;-46
2021/10/06 08:01:49;;;;;;;15.05;4.00;;;;;;;13.02;83.92;100918.50;5042144;28;20060;-44
2021/10/06 08:04:19;;;;;;;7.20;2.50;;;;;;;13.12;83.30;100917.63;5039993;28;20042;-46
2021/10/06 08:06:46;;;;;;;9.20;2.83;;;;;;;12.77;84.05;100923.03;5048579;28;20048;-45
2021/10/06 08:09:18;;;;;;;14.25;4.10;;;;;;;12.87;84.80;100929.50;5035452;28;20049;-48
2021/10/06 08:11:46;;;;;;;7.57;2.40;;;;;;;12.67;85.06;100930.44;5031262;28;20047;-47
2021/10/06 08:14:13;;;;;;;11.88;2.70;;;;;;;12.51;86.92;100925.03;5044162;28;20040;-46
2021/10/06 08:16:42;;;;;;;7.20;2.05;;;;;;;12.65;86.16;100924.41;5052290;28;20052;-46
2021/10/06 08:19:09;;;;;;;6.80;2.65;;;;;;;12.69;86.08;100942.72;5054061;28;20037;-46
2021/10/06 08:21:37;;;;;;;7.13;2.63;;;;;;;12.84;85.23;100946.50;5043062;28;20593;-48
2021/10/06 08:24:04;;;;;;;5.78;1.98;;;;;;;12.70;85.59;100949.84;5034352;28;20045;-45
2021/10/06 08:26:32;;;;;;;2.83;1.33;;;;;;;12.56;85.45;100957.00;5037657;28;20060;-46
2021/10/06 08:29:00;;;;;;;3.03;1.95;;;;;;;12.46;86.35;100965.19;5040623;28;20396;-47
2021/10/06 08:31:27;;;;;;;6.28;2.03;;;;;;;12.41;87.14;100963.31;5035466;28;20049;-48
2021/10/06 08:33:55;;;;;;;7.63;1.98;;;;;;;12.40;88.27;100979.97;5038864;28;20061;-47
2021/10/06 08:36:23;;;;;;;4.28;1.58;;;;;;;12.28;87.64;100983.81;5037747;28;20045;-47
2021/10/06 08:38:50;;;;;;;6.47;2.33;;;;;;;12.29;88.93;100982.75;5038252;28;20045;-47
2021/10/06 08:41:18;;;;;;;4.40;1.88;;;;;;;12.27;87.52;100986.84;5038815;28;20041;-47
2021/10/06 08:43:45;;;;;;;10.82;2.35;;;;;;;12.21;88.36;100980.56;5035677;28;20045;-46
2021/10/06 08:46:13;;;;;;;5.65;2.17;;;;;;;12.52;88.11;100994.16;5033450;28;20129;-47
2021/10/06 08:48:41;;;;;;;8.50;2.65;;;;;;;12.74;87.17;100980.97;5019683;28;20057;-45
2021/10/06 08:51:08;;;;;;;7.68;2.38;;;;;;;12.69;87.16;101004.78;5040569;28;20076;-47
2021/10/06 08:53:48;;;;;;;4.05;1.73;;;;;;;12.57;86.90;101002.34;5036956;28;20036;-46
2021/10/06 08:56:16;;;;;;;3.50;1.52;;;;;;;12.29;87.87;101011.94;5040382;28;20488;-47
2021/10/06 08:58:44;;;;;;;2.63;1.67;;;;;;;12.27;88.24;101004.06;5036886;28;20615;-46
2021/10/06 09:01:32;;;;;;;2.83;1.67;;;;;;;12.21;89.02;101010.59;5040400;28;20041;-47
2021/10/06 09:04:05;;;;;;;5.82;2.30;;;;;;;12.31;89.21;101010.63;5033356;28;20049;-47
2021/10/06 09:06:38;;;;;;;5.18;2.10;;;;;;;12.45;89.03;101010.03;5039912;28;20037;-48
2021/10/06 09:09:26;;;;;;;8.20;2.50;;;;;;;12.53;88.37;101023.13;5036577;28;20045;-46
2021/10/06 09:11:54;;;;;;;4.82;2.00;;;;;;;12.76;87.95;101013.50;5034473;28;20045;-45
2021/10/06 09:14:23;;;;;;;3.47;2.03;;;;;;;12.93;86.48;101018.66;5034984;28;20052;-47
2021/10/06 09:17:11;;;;;;;2.85;1.60;;;;;;;12.61;88.08;101033.50;5045439;28;20385;-46
2021/10/06 09:19:44;;;;;;;6.20;1.77;;;;;;;12.46;88.35;101037.09;5052872;28;20418;-46
2021/10/06 09:22:17;;;;;;;3.58;1.73;;;;;;;12.36;89.82;101046.13;5051280;28;20047;-46
2021/10/06 09:24:52;;;;;;;4.63;1.95;;;;;;;12.48;88.91;101042.25;5043880;28;20049;-46
2021/10/06 09:27:40;;;;;;;6.70;1.70;;;;;;;12.84;88.27;101042.19;5052658;28;20041;-46
2021/10/06 09:30:13;;;;;;;4.10;1.85;;;;;;;12.85;87.75;101046.59;5052476;28;20060;-43
2021/10/06 09:32:43;;;;;;;3.85;1.92;;;;;;;12.71;88.20;101052.63;5047883;28;20427;-45
2021/10/06 09:35:13;;;;;;;5.43;1.67;;;;;;;12.65;88.40;101064.69;5051311;28;20041;-46
2021/10/06 09:37:48;;;;;;;3.88;2.10;;;;;;;12.60;88.75;101072.03;5052591;28;20048;-46
2021/10/06 09:40:19;;;;;;;3.88;1.70;;;;;;;12.68;88.81;101058.66;5052380;28;20048;-46
2021/10/06 09:42:52;;;;;;;5.55;2.03;;;;;;;13.02;86.90;101073.63;5046384;28;20045;-44
2021/10/06 09:45:24;;;;;;;5.25;1.88;;;;;;;12.92;86.97;101069.00;5044217;28;20049;-45
2021/10/06 09:48:04;;;;;;;4.78;1.88;;;;;;;13.08;86.53;101067.00;5052045;28;20072;-46
2021/10/06 09:50:34;;;;;;;5.47;2.28;;;;;;;12.91;87.06;101067.34;5052000;28;20075;-48
2021/10/06 09:53:12;;;;;;;2.40;1.30;;;;;;;13.11;86.66;101064.56;5034533;28;20095;-46
2021/10/06 09:55:44;;;;;;;4.22;2.00;;;;;;;13.19;85.61;101069.44;5046310;28;20499;-46
2021/10/06 09:58:13;;;;;;;11.00;2.15;;;;;;;13.05;86.11;101071.13;5052112;28;20055;-46
2021/10/06 10:00:43;;;;;;;5.50;2.17;;;;;;;13.18;85.79;101078.75;5050808;28;20052;-43
2021/10/06 10:03:11;;;;;;;3.53;1.83;;;;;;;13.08;86.35;101081.50;5050509;28;20446;-46
2021/10/06 10:05:40;;;;;;;7.65;2.13;;;;;;;13.19;85.76;101080.38;5043380;28;20086;-46
2021/10/06 10:08:09;;;;;;;5.65;2.08;;;;;;;13.05;86.42;101084.81;5051962;28;20051;-44
2021/10/06 10:10:38;;;;;;;7.60;2.15;;;;;;;13.00;86.79;101085.63;5050811;28;20048;-46
2021/10/06 10:13:06;;;;;;;7.38;2.08;;;;;;;13.15;86.41;101090.22;5050585;28;20048;-47
2021/10/06 10:15:34;;;;;;;6.75;2.10;;;;;;;13.05;87.12;101092.19;5041194;28;20480;-45
2021/10/06 10:18:05;;;;;;;3.08;1.48;;;;;;;13.04;86.85;101083.19;5051384;28;20049;-45
2021/10/06 10:20:35;;;;;;;5.28;1.92;;;;;;;13.15;86.30;101084.75;5050233;28;20051;-47
2021/10/06 10:23:04;;;;;;;3.53;1.60;;;;;;;13.26;86.15;101079.28;5050706;28;20051;-44
2021/10/06 10:25:40;;;;;;;4.85;1.77;;;;;;;13.07;87.34;101090.00;5039008;28;20037;-46
2021/10/06 10:28:14;;;;;;;5.28;1.98;;;;;;;13.05;86.86;101087.53;5051493;28;20048;-46
2021/10/06 10:30:54;;;;;;;5.40;1.70;;;;;;;13.19;86.45;101101.47;5050136;28;20032;-47
2021/10/06 10:33:46;;;;;;;5.00;1.77;;;;;;;13.20;86.31;101101.19;5050631;28;20040;-45
2021/10/06 10:36:40;;;;;;;2.70;1.45;;;;;;;13.10;86.72;101109.41;5037610;28;20052;-47
2021/10/06 10:39:32;;;;;;;6.47;2.45;;;;;;;13.15;87.01;101122.25;5051520;28;20040;-48
2021/10/06 10:42:00;;;;;;;2.72;1.45;;;;;;;13.25;86.17;101115.94;5051784;28;20538;-48
2021/10/06 10:44:34;;;;;;;3.67;1.55;;;;;;;13.19;86.54;101113.22;5051568;28;20095;-47
2021/10/06 10:47:06;;;;;;;4.78;1.83;;;;;;;13.13;86.63;101106.13;5045902;28;20037;-47
2021/10/06 10:49:45;;;;;;;6.25;2.28;;;;;;;13.02;87.18;101100.97;5051277;28;20049;-48
2021/10/06 10:52:14;;;;;;;6.40;2.10;;;;;;;12.98;87.65;101106.16;5051315;28;20048;-45
2021/10/06 10:54:49;;;;;;;5.65;1.67;;;;;;;12.93;87.61;101103.44;5051225;28;20458;-47
2021/10/06 10:57:37;;;;;;;6.07;2.05;;;;;;;13.19;87.27;101106.94;5036119;28;20064;-45
2021/10/06 11:00:05;;;;;;;4.55;2.15;;;;;;;13.53;85.54;101104.34;5050050;28;20415;-46
2021/10/06 11:02:37;;;;;;;3.17;1.63;;;;;;;13.88;83.62;101105.28;5050744;28;20052;-45
2021/10/06 11:05:07;;;;;;;4.25;1.73;;;;;;;14.11;82.26;101105.69;5051433;28;20118;-46
2021/10/06 11:07:49;;;;;;;2.90;1.55;;;;;;;14.09;82.18;101118.84;5039444;28;20469;-47
2021/10/06 11:10:18;;;;;;;7.63;2.20;;;;;;;13.74;83.85;101129.72;5027776;28;20111;-47
2021/10/06 11:13:05;;;;;;;6.13;1.95;;;;;;;13.33;85.70;101134.56;5051396;28;20056;-47
2021/10/06 11:15:34;;;;;;;6.35;2.05;;;;;;;13.35;86.08;101133.19;5050799;28;20124;-47
2021/10/06 11:18:10;;;;;;;2.85;1.30;;;;;;;13.28;87.30;101138.13;5040370;28;20064;-47
2021/10/06 11:20:44;;;;;;;;;;;;;;;13.30;87.34;101135.09;5049535;28;20045;-48
2021/10/06 11:23:30;;;;;;;5.03;1.85;;;;;;;13.52;85.89;101138.31;5051113;28;20522;-46
2021/10/06 11:26:04;;;;;;;;;;;;;;;13.43;87.14;101140.00;5026509;28;20052;-47
2021/10/06 11:28:35;;;;;;;9.27;2.05;;;;;;;13.34;87.97;101152.59;5042087;28;20011;-47
2021/10/06 11:31:03;;;;;;;10.00;2.70;;;;;;;13.21;89.81;101156.72;5050539;28;20492;-47
2021/10/06 11:33:31;;;;;;;6.88;2.40;;;;;;;13.15;90.47;101155.91;5033180;28;20037;-48
2021/10/06 11:36:15;;;;;;;10.40;2.53;;;;;;;13.13;91.26;101152.66;5050542;28;20523;-47